sensor_id;sensor_type;location;lat;lon;timestamp;pressure;altitude;pressure_sealevel;temperature;humidity
13420;BME280;6781;58.440;15.470;2023-04-25T00:00:51;101291.28;;;4.86;100.00
13420;BME280;6781;58.440;15.470;2023-04-25T00:03:19;101248.22;;;4.73;100.00
13420;BME280;6781;58.440;15.470;2023-04-25T00:05:46;101169.28;;;4.18;100.00
13420;BME280;6781;58.440;15.470;2023-04-25T00:08:14;101196.59;;;4.19;100.00
13420;BME280;6781;58.440;15.470;2023-04-25T00:10:41;101424.72;;;5.69;100.00
13420;BME280;6781;58.440;15.470;2023-04-25T00:13:09;101126.91;;;3.89;100.00
13420;BME280;6781;58.440;15.470;2023-04-25T00:15:37;101267.50;;;4.63;100.00
13420;BME280;6781;58.440;15.470;2023-04-25T00:18:04;101390.34;;;5.33;100.00
13420;BME280;6781;58.440;15.470;2023-04-25T00:20:31;101335.19;;;4.82;100.00
13420;BME280;6781;58.440;15.470;2023-04-25T00:22:58;101457.53;;;5.64;100.00
13420;BME280;6781;58.440;15.470;2023-04-25T00:25:25;101408.41;;;5.31;100.00
13420;BME280;6781;58.440;15.470;2023-04-25T00:27:52;101345.63;;;4.98;100.00
13420;BME280;6781;58.440;15.470;2023-04-25T00:30:21;101493.78;;;5.78;100.00
13420;BME280;6781;58.440;15.470;2023-04-25T00:32:48;101485.97;;;5.61;100.00
13420;BME280;6781;58.440;15.470;2023-04-25T00:35:16;101488.91;;;5.72;100.00
13420;BME280;6781;58.440;15.470;2023-04-25T00:37:43;101478.63;;;5.72;100.00
13420;BME280;6781;58.440;15.470;2023-04-25T00:40:10;101330.88;;;4.82;100.00
13420;BME280;6781;58.440;15.470;2023-04-25T00:42:37;101388.59;;;5.14;100.00
13420;BME280;6781;58.440;15.470;2023-04-25T00:45:06;101318.47;;;4.72;100.00
13420;BME280;6781;58.440;15.470;2023-04-25T00:47:38;101195.97;;;3.94;100.00
13420;BME280;6781;58.440;15.470;2023-04-25T00:50:07;101317.31;;;4.79;100.00
13420;BME280;6781;58.440;15.470;2023-04-25T00:52:34;101242.16;;;4.35;100.00
13420;BME280;6781;58.440;15.470;2023-04-25T00:55:01;101329.47;;;4.75;100.00
13420;BME280;6781;58.440;15.470;2023-04-25T00:57:29;101302.44;;;4.46;100.00
13420;BME280;6781;58.440;15.470;2023-04-25T00:59:56;101489.44;;;5.60;100.00
13420;BME280;6781;58.440;15.470;2023-04-25T01:02:23;101465.09;;;5.48;100.00
13420;BME280;6781;58.440;15.470;2023-04-25T01:04:52;101335.19;;;4.82;100.00
13420;BME280;6781;58.440;15.470;2023-04-25T01:07:20;101309.25;;;4.68;100.00
13420;BME280;6781;58.440;15.470;2023-04-25T01:09:47;101371.91;;;5.04;100.00
13420;BME280;6781;58.440;15.470;2023-04-25T01:12:14;101478.13;;;5.64;100.00
13420;BME280;6781;58.440;15.470;2023-04-25T01:14:42;101412.38;;;5.19;100.00
13420;BME280;6781;58.440;15.470;2023-04-25T01:17:09;101396.06;;;5.00;100.00
13420;BME280;6781;58.440;15.470;2023-04-25T01:19:36;101233.91;;;4.08;100.00
13420;BME280;6781;58.440;15.470;2023-04-25T01:22:05;101407.56;;;4.92;100.00
13420;BME280;6781;58.440;15.470;2023-04-25T01:24:32;101255.91;;;4.13;100.00
13420;BME280;6781;58.440;15.470;2023-04-25T01:27:00;101245.81;;;4.09;100.00
13420;BME280;6781;58.440;15.470;2023-04-25T01:29:28;101263.09;;;4.05;100.00
13420;BME280;6781;58.440;15.470;2023-04-25T01:31:55;101408.09;;;5.00;100.00
13420;BME280;6781;58.440;15.470;2023-04-25T01:34:24;101391.44;;;4.88;100.00
13420;BME280;6781;58.440;15.470;2023-04-25T01:36:52;101265.72;;;4.04;100.00
13420;BME280;6781;58.440;15.470;2023-04-25T01:39:24;101327.88;;;4.52;100.00
13420;BME280;6781;58.440;15.470;2023-04-25T01:41:51;101270.28;;;4.17;100.00
13420;BME280;6781;58.440;15.470;2023-04-25T01:44:18;101263.09;;;4.25;100.00
13420;BME280;6781;58.440;15.470;2023-04-25T01:46:45;101376.78;;;4.90;100.00
13420;BME280;6781;58.440;15.470;2023-04-25T01:49:12;101500.28;;;5.48;100.00
13420;BME280;6781;58.440;15.470;2023-04-25T01:51:40;101203.66;;;3.74;100.00
13420;BME280;6781;58.440;15.470;2023-04-25T01:54:08;101485.03;;;5.43;100.00
13420;BME280;6781;58.440;15.470;2023-04-25T01:56:38;101477.31;;;5.43;100.00
13420;BME280;6781;58.440;15.470;2023-04-25T01:59:06;101308.47;;;4.25;100.00
13420;BME280;6781;58.440;15.470;2023-04-25T02:01:33;101426.66;;;5.06;100.00
13420;BME280;6781;58.440;15.470;2023-04-25T02:04:00;101337.09;;;4.36;100.00
13420;BME280;6781;58.440;15.470;2023-04-25T02:09:02;101496.53;;;5.35;100.00
13420;BME280;6781;58.440;15.470;2023-04-25T02:11:29;101531.53;;;5.39;100.00
13420;BME280;6781;58.440;15.470;2023-04-25T02:13:58;101520.66;;;5.32;100.00
13420;BME280;6781;58.440;15.470;2023-04-25T02:16:25;101506.19;;;5.30;100.00
13420;BME280;6781;58.440;15.470;2023-04-25T02:18:52;101492.97;;;4.98;100.00
13420;BME280;6781;58.440;15.470;2023-04-25T02:21:19;101414.44;;;4.71;100.00
13420;BME280;6781;58.440;15.470;2023-04-25T02:23:46;101524.69;;;5.19;100.00
13420;BME280;6781;58.440;15.470;2023-04-25T02:26:14;101531.78;;;5.33;100.00
13420;BME280;6781;58.440;15.470;2023-04-25T02:28:41;101484.75;;;5.10;100.00
13420;BME280;6781;58.440;15.470;2023-04-25T02:31:14;101525.69;;;5.35;100.00
13420;BME280;6781;58.440;15.470;2023-04-25T02:33:42;101373.63;;;4.43;100.00
13420;BME280;6781;58.440;15.470;2023-04-25T02:36:09;101498.53;;;5.28;100.00
13420;BME280;6781;58.440;15.470;2023-04-25T02:38:37;101432.69;;;4.85;100.00
13420;BME280;6781;58.440;15.470;2023-04-25T02:41:04;101364.50;;;4.36;100.00
13420;BME280;6781;58.440;15.470;2023-04-25T02:43:31;101512.88;;;5.34;100.00
13420;BME280;6781;58.440;15.470;2023-04-25T02:45:58;101236.19;;;3.93;100.00
13420;BME280;6781;58.440;15.470;2023-04-25T02:48:27;101388.09;;;4.86;100.00
13420;BME280;6781;58.440;15.470;2023-04-25T02:50:54;101479.22;;;5.19;100.00
13420;BME280;6781;58.440;15.470;2023-04-25T02:53:21;101279.34;;;4.26;100.00
13420;BME280;6781;58.440;15.470;2023-04-25T02:55:48;101315.91;;;4.31;100.00
13420;BME280;6781;58.440;15.470;2023-04-25T02:58:17;101308.09;;;4.34;100.00
13420;BME280;6781;58.440;15.470;2023-04-25T03:00:45;101361.38;;;4.49;100.00
13420;BME280;6781;58.440;15.470;2023-04-25T03:03:12;101366.91;;;4.61;100.00
13420;BME280;6781;58.440;15.470;2023-04-25T03:05:40;101429.47;;;5.00;100.00
13420;BME280;6781;58.440;15.470;2023-04-25T03:08:07;101438.75;;;5.04;100.00
13420;BME280;6781;58.440;15.470;2023-04-25T03:10:34;101182.69;;;3.64;100.00
13420;BME280;6781;58.440;15.470;2023-04-25T03:13:01;101441.69;;;5.15;100.00
13420;BME280;6781;58.440;15.470;2023-04-25T03:15:28;101420.41;;;5.12;100.00
13420;BME280;6781;58.440;15.470;2023-04-25T03:17:56;101381.16;;;4.88;100.00
13420;BME280;6781;58.440;15.470;2023-04-25T03:20:23;101407.81;;;5.06;100.00
13420;BME280;6781;58.440;15.470;2023-04-25T03:22:52;101305.53;;;4.34;100.00
13420;BME280;6781;58.440;15.470;2023-04-25T03:25:19;101322.72;;;4.52;100.00
13420;BME280;6781;58.440;15.470;2023-04-25T03:27:47;101353.16;;;4.62;100.00
13420;BME280;6781;58.440;15.470;2023-04-25T03:30:14;101368.38;;;4.66;100.00
13420;BME280;6781;58.440;15.470;2023-04-25T03:32:41;101428.84;;;4.95;100.00
13420;BME280;6781;58.440;15.470;2023-04-25T03:35:08;101481.53;;;5.05;100.00
13420;BME280;6781;58.440;15.470;2023-04-25T03:37:35;101242.44;;;3.66;100.00
13420;BME280;6781;58.440;15.470;2023-04-25T03:40:05;101394.59;;;4.74;100.00
13420;BME280;6781;58.440;15.470;2023-04-25T03:42:33;101387.28;;;4.65;100.00
13420;BME280;6781;58.440;15.470;2023-04-25T03:45:00;101280.47;;;4.19;100.00
13420;BME280;6781;58.440;15.470;2023-04-25T03:47:31;101221.66;;;3.72;100.00
13420;BME280;6781;58.440;15.470;2023-04-25T03:50:01;101281.75;;;4.09;100.00
13420;BME280;6781;58.440;15.470;2023-04-25T03:52:34;101245.25;;;4.02;100.00
13420;BME280;6781;58.440;15.470;2023-04-25T03:55:01;101364.34;;;4.81;100.00
13420;BME280;6781;58.440;15.470;2023-04-25T03:58:21;101400.63;;;4.94;100.00
13420;BME280;6781;58.440;15.470;2023-04-25T04:01:01;101220.13;;;3.68;100.00
13420;BME280;6781;58.440;15.470;2023-04-25T04:03:42;101266.22;;;4.12;100.00
13420;BME280;6781;58.440;15.470;2023-04-25T04:06:09;101249.41;;;4.05;100.00
13420;BME280;6781;58.440;15.470;2023-04-25T04:08:36;101316.81;;;4.50;100.00
13420;BME280;6781;58.440;15.470;2023-04-25T04:11:03;101413.41;;;4.95;100.00
13420;BME280;6781;58.440;15.470;2023-04-25T04:13:32;101204.50;;;3.74;100.00
13420;BME280;6781;58.440;15.470;2023-04-25T04:15:59;101315.41;;;4.43;100.00
13420;BME280;6781;58.440;15.470;2023-04-25T04:18:26;101380.66;;;5.00;100.00
13420;BME280;6781;58.440;15.470;2023-04-25T04:20:53;101416.13;;;5.31;100.00
13420;BME280;6781;58.440;15.470;2023-04-25T04:23:20;101179.63;;;3.97;100.00
13420;BME280;6781;58.440;15.470;2023-04-25T04:25:48;101372.47;;;5.11;100.00
13420;BME280;6781;58.440;15.470;2023-04-25T04:28:15;101392.78;;;5.36;100.00
13420;BME280;6781;58.440;15.470;2023-04-25T04:30:44;101293.50;;;4.75;100.00
13420;BME280;6781;58.440;15.470;2023-04-25T04:33:12;101251.09;;;4.46;100.00
13420;BME280;6781;58.440;15.470;2023-04-25T04:35:41;101214.84;;;4.13;100.00
13420;BME280;6781;58.440;15.470;2023-04-25T04:38:09;101160.13;;;3.72;100.00
13420;BME280;6781;58.440;15.470;2023-04-25T04:40:36;101266.69;;;4.42;100.00
13420;BME280;6781;58.440;15.470;2023-04-25T04:43:03;101278.59;;;4.63;100.00
13420;BME280;6781;58.440;15.470;2023-04-25T04:45:31;101115.03;;;3.67;100.00
13420;BME280;6781;58.440;15.470;2023-04-25T04:48:00;101104.19;;;3.60;100.00
13420;BME280;6781;58.440;15.470;2023-04-25T04:50:27;101261.84;;;4.54;100.00
13420;BME280;6781;58.440;15.470;2023-04-25T04:52:54;101380.25;;;5.09;100.00
13420;BME280;6781;58.440;15.470;2023-04-25T04:55:22;101102.03;;;3.71;100.00
13420;BME280;6781;58.440;15.470;2023-04-25T04:57:49;101207.88;;;4.36;100.00
13420;BME280;6781;58.440;15.470;2023-04-25T05:00:19;101358.84;;;5.28;100.00
13420;BME280;6781;58.440;15.470;2023-04-25T05:02:47;101212.28;;;4.52;100.00
13420;BME280;6781;58.440;15.470;2023-04-25T05:05:17;101119.44;;;4.04;100.00
13420;BME280;6781;58.440;15.470;2023-04-25T05:07:44;101328.97;;;5.25;100.00
13420;BME280;6781;58.440;15.470;2023-04-25T05:10:12;101327.88;;;5.12;100.00
13420;BME280;6781;58.440;15.470;2023-04-25T05:12:39;101284.69;;;4.81;100.00
13420;BME280;6781;58.440;15.470;2023-04-25T05:15:07;101335.25;;;5.19;100.00
13420;BME280;6781;58.440;15.470;2023-04-25T05:17:34;101135.22;;;4.15;100.00
13420;BME280;6781;58.440;15.470;2023-04-25T05:20:02;101314.84;;;5.34;100.00
13420;BME280;6781;58.440;15.470;2023-04-25T05:22:32;101145.22;;;4.01;100.00
13420;BME280;6781;58.440;15.470;2023-04-25T05:24:59;101317.06;;;5.22;100.00
13420;BME280;6781;58.440;15.470;2023-04-25T05:27:26;101276.44;;;4.93;100.00
13420;BME280;6781;58.440;15.470;2023-04-25T05:29:53;101323.41;;;5.15;100.00
13420;BME280;6781;58.440;15.470;2023-04-25T05:32:21;101116.63;;;3.89;100.00
13420;BME280;6781;58.440;15.470;2023-04-25T05:34:48;101310.34;;;5.01;100.00
13420;BME280;6781;58.440;15.470;2023-04-25T05:37:15;101347.66;;;5.29;100.00
13420;BME280;6781;58.440;15.470;2023-04-25T05:39:44;101175.81;;;4.25;100.00
13420;BME280;6781;58.440;15.470;2023-04-25T05:42:12;101150.16;;;4.05;100.00
13420;BME280;6781;58.440;15.470;2023-04-25T05:44:39;101256.44;;;4.81;100.00
13420;BME280;6781;58.440;15.470;2023-04-25T05:47:06;101206.13;;;4.56;100.00
13420;BME280;6781;58.440;15.470;2023-04-25T05:49:34;101365.41;;;5.53;100.00
13420;BME280;6781;58.440;15.470;2023-04-25T05:52:01;101344.81;;;5.53;100.00
13420;BME280;6781;58.440;15.470;2023-04-25T05:54:28;101353.56;;;5.49;100.00
13420;BME280;6781;58.440;15.470;2023-04-25T05:56:57;101163.09;;;4.22;100.00
13420;BME280;6781;58.440;15.470;2023-04-25T05:59:25;101344.53;;;5.41;100.00
13420;BME280;6781;58.440;15.470;2023-04-25T06:01:52;101342.88;;;5.59;100.00
13420;BME280;6781;58.440;15.470;2023-04-25T06:04:20;101340.56;;;5.71;100.00
13420;BME280;6781;58.440;15.470;2023-04-25T06:06:48;101358.69;;;5.87;100.00
13420;BME280;6781;58.440;15.470;2023-04-25T06:09:15;101357.09;;;5.84;100.00
13420;BME280;6781;58.440;15.470;2023-04-25T06:11:42;101347.44;;;5.71;100.00
13420;BME280;6781;58.440;15.470;2023-04-25T06:14:10;101343.69;;;5.78;100.00
13420;BME280;6781;58.440;15.470;2023-04-25T06:16:37;101302.66;;;5.56;100.00
13420;BME280;6781;58.440;15.470;2023-04-25T06:19:04;101308.09;;;5.50;100.00
13420;BME280;6781;58.440;15.470;2023-04-25T06:21:31;101207.66;;;4.79;100.00
13420;BME280;6781;58.440;15.470;2023-04-25T06:23:58;101196.28;;;4.85;100.00
13420;BME280;6781;58.440;15.470;2023-04-25T06:26:25;101318.94;;;5.56;100.00
13420;BME280;6781;58.440;15.470;2023-04-25T06:28:52;101332.47;;;5.79;100.00
13420;BME280;6781;58.440;15.470;2023-04-25T06:31:21;101349.81;;;5.94;100.00
13420;BME280;6781;58.440;15.470;2023-04-25T06:33:49;101332.56;;;5.77;100.00
13420;BME280;6781;58.440;15.470;2023-04-25T06:36:16;101351.28;;;6.17;100.00
13420;BME280;6781;58.440;15.470;2023-04-25T06:38:43;101305.53;;;5.86;100.00
13420;BME280;6781;58.440;15.470;2023-04-25T06:41:10;101337.66;;;6.15;100.00
13420;BME280;6781;58.440;15.470;2023-04-25T06:43:38;101311.66;;;6.02;100.00
13420;BME280;6781;58.440;15.470;2023-04-25T06:46:05;101320.22;;;6.20;100.00
13420;BME280;6781;58.440;15.470;2023-04-25T06:48:33;101300.66;;;5.99;100.00
13420;BME280;6781;58.440;15.470;2023-04-25T06:51:01;101330.09;;;6.29;100.00
13420;BME280;6781;58.440;15.470;2023-04-25T06:53:28;101214.41;;;5.37;100.00
13420;BME280;6781;58.440;15.470;2023-04-25T06:55:54;101304.56;;;5.88;100.00
13420;BME280;6781;58.440;15.470;2023-04-25T06:58:21;101320.81;;;6.08;100.00
13420;BME280;6781;58.440;15.470;2023-04-25T07:00:49;101194.72;;;5.18;100.00
13420;BME280;6781;58.440;15.470;2023-04-25T07:03:16;101315.06;;;6.03;100.00
13420;BME280;6781;58.440;15.470;2023-04-25T07:05:44;101326.81;;;6.26;100.00
13420;BME280;6781;58.440;15.470;2023-04-25T07:08:11;101326.44;;;6.16;100.00
13420;BME280;6781;58.440;15.470;2023-04-25T07:10:38;101305.81;;;5.99;100.00
13420;BME280;6781;58.440;15.470;2023-04-25T07:13:05;101340.84;;;6.20;100.00
13420;BME280;6781;58.440;15.470;2023-04-25T07:15:33;101144.97;;;5.19;100.00
13420;BME280;6781;58.440;15.470;2023-04-25T07:18:00;101239.91;;;5.77;100.00
13420;BME280;6781;58.440;15.470;2023-04-25T07:20:27;101321.06;;;6.38;100.00
13420;BME280;6781;58.440;15.470;2023-04-25T07:22:57;101328.63;;;6.58;100.00
13420;BME280;6781;58.440;15.470;2023-04-25T07:25:24;101289.31;;;6.37;100.00
13420;BME280;6781;58.440;15.470;2023-04-25T07:27:51;101153.16;;;5.62;100.00
13420;BME280;6781;58.440;15.470;2023-04-25T07:30:19;101208.59;;;6.21;100.00
13420;BME280;6781;58.440;15.470;2023-04-25T07:32:46;101315.50;;;6.96;100.00
13420;BME280;6781;58.440;15.470;2023-04-25T07:35:13;101322.53;;;7.09;100.00
13420;BME280;6781;58.440;15.470;2023-04-25T07:37:40;101312.03;;;7.12;100.00
13420;BME280;6781;58.440;15.470;2023-04-25T07:40:10;101321.63;;;7.42;100.00
13420;BME280;6781;58.440;15.470;2023-04-25T07:42:37;101335.72;;;7.68;100.00
13420;BME280;6781;58.440;15.470;2023-04-25T07:45:06;101336.00;;;8.09;100.00
13420;BME280;6781;58.440;15.470;2023-04-25T07:47:33;101231.66;;;7.51;100.00
13420;BME280;6781;58.440;15.470;2023-04-25T07:50:00;101134.19;;;6.95;100.00
13420;BME280;6781;58.440;15.470;2023-04-25T07:52:27;101155.63;;;7.57;100.00
13420;BME280;6781;58.440;15.470;2023-04-25T07:54:54;101141.00;;;7.42;100.00
13420;BME280;6781;58.440;15.470;2023-04-25T07:57:22;101264.72;;;8.65;100.00
13420;BME280;6781;58.440;15.470;2023-04-25T07:59:49;101033.31;;;7.15;100.00
13420;BME280;6781;58.440;15.470;2023-04-25T08:02:16;101164.25;;;7.72;100.00
13420;BME280;6781;58.440;15.470;2023-04-25T08:04:43;101080.78;;;7.71;100.00
13420;BME280;6781;58.440;15.470;2023-04-25T08:07:10;101083.09;;;7.62;100.00
13420;BME280;6781;58.440;15.470;2023-04-25T08:09:37;101148.06;;;7.98;100.00
13420;BME280;6781;58.440;15.470;2023-04-25T08:12:04;101002.16;;;7.04;100.00
13420;BME280;6781;58.440;15.470;2023-04-25T08:14:33;101046.28;;;7.44;100.00
13420;BME280;6781;58.440;15.470;2023-04-25T08:17:02;101029.84;;;7.31;100.00
13420;BME280;6781;58.440;15.470;2023-04-25T08:19:30;101133.03;;;8.05;100.00
13420;BME280;6781;58.440;15.470;2023-04-25T08:21:58;101106.97;;;7.65;100.00
13420;BME280;6781;58.440;15.470;2023-04-25T08:24:25;101114.00;;;7.92;100.00
13420;BME280;6781;58.440;15.470;2023-04-25T08:26:52;100979.47;;;6.81;100.00
13420;BME280;6781;58.440;15.470;2023-04-25T08:29:19;101023.88;;;7.44;100.00
13420;BME280;6781;58.440;15.470;2023-04-25T08:31:47;101121.69;;;8.22;100.00
13420;BME280;6781;58.440;15.470;2023-04-25T08:34:14;101056.81;;;7.69;100.00
13420;BME280;6781;58.440;15.470;2023-04-25T08:36:41;101097.78;;;8.18;100.00
13420;BME280;6781;58.440;15.470;2023-04-25T08:39:09;101103.53;;;8.37;100.00
13420;BME280;6781;58.440;15.470;2023-04-25T08:41:36;100943.44;;;7.24;100.00
13420;BME280;6781;58.440;15.470;2023-04-25T08:44:03;100973.28;;;7.42;100.00
13420;BME280;6781;58.440;15.470;2023-04-25T08:46:32;100997.34;;;7.57;100.00
13420;BME280;6781;58.440;15.470;2023-04-25T08:49:01;101078.59;;;8.22;100.00
13420;BME280;6781;58.440;15.470;2023-04-25T08:51:31;100911.34;;;7.13;100.00
13420;BME280;6781;58.440;15.470;2023-04-25T08:54:07;101042.72;;;8.03;100.00
13420;BME280;6781;58.440;15.470;2023-04-25T08:56:35;101053.13;;;8.16;100.00
13420;BME280;6781;58.440;15.470;2023-04-25T08:59:02;101066.78;;;8.46;100.00
13420;BME280;6781;58.440;15.470;2023-04-25T09:01:30;101052.84;;;8.35;100.00
13420;BME280;6781;58.440;15.470;2023-04-25T09:03:57;101025.25;;;8.21;100.00
13420;BME280;6781;58.440;15.470;2023-04-25T09:06:26;101016.19;;;8.28;100.00
13420;BME280;6781;58.440;15.470;2023-04-25T09:08:54;101022.94;;;8.45;100.00
13420;BME280;6781;58.440;15.470;2023-04-25T09:11:21;101072.28;;;8.81;100.00
13420;BME280;6781;58.440;15.470;2023-04-25T09:13:48;101030.25;;;8.65;100.00
13420;BME280;6781;58.440;15.470;2023-04-25T09:16:15;100960.47;;;8.38;100.00
13420;BME280;6781;58.440;15.470;2023-04-25T09:18:47;101044.13;;;9.17;100.00
13420;BME280;6781;58.440;15.470;2023-04-25T09:21:14;101028.06;;;9.11;100.00
13420;BME280;6781;58.440;15.470;2023-04-25T09:23:46;100881.16;;;8.12;100.00
13420;BME280;6781;58.440;15.470;2023-04-25T09:26:15;101004.69;;;9.26;100.00
13420;BME280;6781;58.440;15.470;2023-04-25T09:28:42;100926.41;;;8.84;100.00
13420;BME280;6781;58.440;15.470;2023-04-25T09:31:11;100960.16;;;8.95;100.00
13420;BME280;6781;58.440;15.470;2023-04-25T09:33:38;100961.00;;;9.08;100.00
13420;BME280;6781;58.440;15.470;2023-04-25T09:36:07;100955.84;;;9.21;100.00
13420;BME280;6781;58.440;15.470;2023-04-25T09:38:41;100955.63;;;9.50;100.00
13420;BME280;6781;58.440;15.470;2023-04-25T09:41:11;100908.53;;;9.06;100.00
13420;BME280;6781;58.440;15.470;2023-04-25T09:43:39;100829.09;;;8.58;100.00
13420;BME280;6781;58.440;15.470;2023-04-25T09:46:08;100927.66;;;9.42;100.00
13420;BME280;6781;58.440;15.470;2023-04-25T09:48:36;100730.63;;;8.23;100.00
13420;BME280;6781;58.440;15.470;2023-04-25T09:51:05;100937.59;;;9.48;100.00
13420;BME280;6781;58.440;15.470;2023-04-25T09:53:32;100786.81;;;8.59;100.00
13420;BME280;6781;58.440;15.470;2023-04-25T09:56:00;100783.81;;;8.65;100.00
13420;BME280;6781;58.440;15.470;2023-04-25T09:58:30;100773.31;;;8.92;100.00
13420;BME280;6781;58.440;15.470;2023-04-25T10:01:00;100867.78;;;9.59;100.00
13420;BME280;6781;58.440;15.470;2023-04-25T10:03:29;100881.47;;;9.85;100.00
13420;BME280;6781;58.440;15.470;2023-04-25T10:05:57;100917.19;;;9.93;100.00
13420;BME280;6781;58.440;15.470;2023-04-25T10:08:27;100797.25;;;9.19;100.00
13420;BME280;6781;58.440;15.470;2023-04-25T10:10:56;100825.63;;;9.21;100.00
13420;BME280;6781;58.440;15.470;2023-04-25T10:13:24;100855.63;;;9.36;100.00
13420;BME280;6781;58.440;15.470;2023-04-25T10:15:53;100786.06;;;9.31;100.00
13420;BME280;6781;58.440;15.470;2023-04-25T10:18:21;100804.19;;;9.55;100.00
13420;BME280;6781;58.440;15.470;2023-04-25T10:20:48;100746.75;;;9.50;100.00
13420;BME280;6781;58.440;15.470;2023-04-25T10:23:15;100840.09;;;9.96;100.00
13420;BME280;6781;58.440;15.470;2023-04-25T10:25:43;100856.69;;;9.94;100.00
13420;BME280;6781;58.440;15.470;2023-04-25T10:28:10;100796.00;;;9.85;100.00
13420;BME280;6781;58.440;15.470;2023-04-25T10:30:37;100864.91;;;10.47;100.00
13420;BME280;6781;58.440;15.470;2023-04-25T10:33:32;100783.47;;;10.03;100.00
13420;BME280;6781;58.440;15.470;2023-04-25T10:36:09;100800.53;;;10.29;100.00
13420;BME280;6781;58.440;15.470;2023-04-25T10:38:37;100750.91;;;9.88;100.00
13420;BME280;6781;58.440;15.470;2023-04-25T10:41:04;100772.94;;;9.93;100.00
13420;BME280;6781;58.440;15.470;2023-04-25T10:43:38;100718.13;;;9.75;100.00
13420;BME280;6781;58.440;15.470;2023-04-25T10:46:16;100750.69;;;9.91;100.00
13420;BME280;6781;58.440;15.470;2023-04-25T10:48:49;100750.59;;;10.03;100.00
13420;BME280;6781;58.440;15.470;2023-04-25T10:51:18;100720.19;;;9.59;100.00
13420;BME280;6781;58.440;15.470;2023-04-25T10:53:46;100716.72;;;9.71;100.00
13420;BME280;6781;58.440;15.470;2023-04-25T10:56:17;100732.38;;;9.46;100.00
13420;BME280;6781;58.440;15.470;2023-04-25T10:58:44;100840.69;;;10.00;100.00
13420;BME280;6781;58.440;15.470;2023-04-25T11:01:12;100697.53;;;9.02;100.00
13420;BME280;6781;58.440;15.470;2023-04-25T11:03:43;100731.31;;;9.49;100.00
13420;BME280;6781;58.440;15.470;2023-04-25T11:06:22;100831.41;;;10.43;100.00
13420;BME280;6781;58.440;15.470;2023-04-25T11:08:51;100814.69;;;10.48;100.00
13420;BME280;6781;58.440;15.470;2023-04-25T11:11:18;100737.06;;;10.00;100.00
13420;BME280;6781;58.440;15.470;2023-04-25T11:13:48;100795.38;;;10.74;100.00
13420;BME280;6781;58.440;15.470;2023-04-25T11:16:15;100802.47;;;11.28;100.00
13420;BME280;6781;58.440;15.470;2023-04-25T11:18:42;100731.91;;;11.12;100.00
13420;BME280;6781;58.440;15.470;2023-04-25T11:21:10;100549.31;;;10.04;100.00
13420;BME280;6781;58.440;15.470;2023-04-25T11:23:39;100667.91;;;11.33;100.00
13420;BME280;6781;58.440;15.470;2023-04-25T11:26:06;100525.19;;;10.58;100.00
13420;BME280;6781;58.440;15.470;2023-04-25T11:28:33;100580.56;;;11.53;100.00
13420;BME280;6781;58.440;15.470;2023-04-25T11:31:00;100478.28;;;10.61;100.00
13420;BME280;6781;58.440;15.470;2023-04-25T11:33:29;100501.59;;;10.40;100.00
13420;BME280;6781;58.440;15.470;2023-04-25T11:35:58;100575.31;;;11.43;100.00
13420;BME280;6781;58.440;15.470;2023-04-25T11:38:25;100547.50;;;11.13;100.00
13420;BME280;6781;58.440;15.470;2023-04-25T11:40:54;100541.31;;;11.77;100.00
13420;BME280;6781;58.440;15.470;2023-04-25T11:43:21;100500.25;;;11.70;100.00
13420;BME280;6781;58.440;15.470;2023-04-25T11:45:49;100421.31;;;11.22;100.00
13420;BME280;6781;58.440;15.470;2023-04-25T11:48:17;100436.78;;;11.63;100.00
13420;BME280;6781;58.440;15.470;2023-04-25T11:50:44;100413.00;;;11.58;100.00
13420;BME280;6781;58.440;15.470;2023-04-25T11:53:11;100369.88;;;11.06;100.00
13420;BME280;6781;58.440;15.470;2023-04-25T11:55:40;100362.03;;;10.96;100.00
13420;BME280;6781;58.440;15.470;2023-04-25T11:58:12;100371.38;;;10.78;100.00
13420;BME280;6781;58.440;15.470;2023-04-25T12:00:42;100404.75;;;11.44;100.00
13420;BME280;6781;58.440;15.470;2023-04-25T12:03:09;100329.97;;;10.97;100.00
13420;BME280;6781;58.440;15.470;2023-04-25T12:05:36;100362.91;;;11.37;100.00
13420;BME280;6781;58.440;15.470;2023-04-25T12:08:12;100321.97;;;11.20;100.00
13420;BME280;6781;58.440;15.470;2023-04-25T12:10:41;100190.75;;;10.37;100.00
13420;BME280;6781;58.440;15.470;2023-04-25T12:13:20;100285.94;;;10.86;100.00
13420;BME280;6781;58.440;15.470;2023-04-25T12:15:47;100287.88;;;10.94;100.00
13420;BME280;6781;58.440;15.470;2023-04-25T12:18:14;100244.63;;;10.64;100.00
13420;BME280;6781;58.440;15.470;2023-04-25T12:20:41;100256.06;;;10.61;100.00
13420;BME280;6781;58.440;15.470;2023-04-25T12:23:09;100280.09;;;10.63;100.00
13420;BME280;6781;58.440;15.470;2023-04-25T12:25:38;100248.38;;;10.50;100.00
13420;BME280;6781;58.440;15.470;2023-04-25T12:30:52;100205.63;;;10.14;100.00
13420;BME280;6781;58.440;15.470;2023-04-25T12:33:19;100292.22;;;10.84;100.00
13420;BME280;6781;58.440;15.470;2023-04-25T12:35:47;100182.69;;;10.09;100.00
13420;BME280;6781;58.440;15.470;2023-04-25T12:38:21;100282.13;;;10.90;100.00
13420;BME280;6781;58.440;15.470;2023-04-25T12:40:48;100300.66;;;11.16;100.00
13420;BME280;6781;58.440;15.470;2023-04-25T12:43:24;100253.53;;;11.11;100.00
13420;BME280;6781;58.440;15.470;2023-04-25T12:45:55;100236.59;;;11.17;100.00
13420;BME280;6781;58.440;15.470;2023-04-25T12:48:23;100084.34;;;10.48;100.00
13420;BME280;6781;58.440;15.470;2023-04-25T12:50:51;100065.94;;;10.61;100.00
13420;BME280;6781;58.440;15.470;2023-04-25T12:53:22;100043.56;;;10.69;100.00
13420;BME280;6781;58.440;15.470;2023-04-25T12:55:50;100171.31;;;11.40;100.00
13420;BME280;6781;58.440;15.470;2023-04-25T12:58:18;100176.63;;;11.68;100.00